createdAt,value
2022-10-07T00:01:10.903Z,12.28
2022-10-07T00:04:14.338Z,12.24
2022-10-07T00:07:16.856Z,12.24
2022-10-07T00:10:19.435Z,12.21
2022-10-07T00:13:24.132Z,12.17
2022-10-07T00:16:29.842Z,12.22
2022-10-07T00:19:33.584Z,12.19
2022-10-07T00:22:36.676Z,12.15
2022-10-07T00:25:39.048Z,12.01
2022-10-07T00:28:41.754Z,11.97
2022-10-07T00:31:46.868Z,11.98
2022-10-07T00:34:48.992Z,11.99
2022-10-07T00:37:51.619Z,12.00
2022-10-07T00:40:54.352Z,11.98
2022-10-07T00:43:56.673Z,11.96
2022-10-07T00:47:19.730Z,11.93
2022-10-07T00:50:27.680Z,11.88
2022-10-07T00:53:32.235Z,11.89
2022-10-07T00:56:35.763Z,11.86
2022-10-07T00:59:40.491Z,11.83
2022-10-07T01:02:44.081Z,11.78
2022-10-07T01:05:46.897Z,11.78
2022-10-07T01:08:53.471Z,11.77
2022-10-07T01:12:04.839Z,11.73
2022-10-07T01:15:34.961Z,11.61
2022-10-07T01:18:38.168Z,11.61
2022-10-07T01:21:44.625Z,11.57
2022-10-07T01:24:59.390Z,11.53
2022-10-07T01:28:08.976Z,11.51
2022-10-07T01:31:14.230Z,11.47
2022-10-07T01:34:18.396Z,11.55
2022-10-07T01:37:24.668Z,11.61
2022-10-07T01:40:30.823Z,11.56
2022-10-07T01:43:34.249Z,11.51
2022-10-07T01:46:38.531Z,11.41
2022-10-07T01:49:40.722Z,11.36
2022-10-07T01:53:02.947Z,11.31
2022-10-07T01:56:33.481Z,11.32
2022-10-07T01:59:48.573Z,11.28
2022-10-07T02:03:01.239Z,11.24
2022-10-07T02:52:22.586Z,10.95
2022-10-07T02:55:26.997Z,10.96
2022-10-07T02:58:29.902Z,11.09
2022-10-07T03:01:39.451Z,11.09
2022-10-07T03:04:43.693Z,11.05
2022-10-07T03:07:52.877Z,11.07
2022-10-07T03:10:57.480Z,11.01
2022-10-07T03:14:00.943Z,10.99
2022-10-07T03:17:04.095Z,10.99
2022-10-07T03:20:10.358Z,10.88
2022-10-07T03:23:13.962Z,10.80
2022-10-07T03:26:19.117Z,10.78
2022-10-07T03:29:24.298Z,10.78
2022-10-07T03:32:28.061Z,10.77
2022-10-07T03:35:30.612Z,10.76
2022-10-07T03:38:34.743Z,10.75
2022-10-07T03:41:37.730Z,10.78
2022-10-07T03:44:39.959Z,10.91
2022-10-07T03:47:44.354Z,10.95
2022-10-07T03:50:51.714Z,10.80
2022-10-07T03:53:57.954Z,10.76
2022-10-07T03:57:01.994Z,10.72
2022-10-07T04:00:05.767Z,10.66
2022-10-07T04:03:09.781Z,10.62
2022-10-07T04:06:13.735Z,10.62
2022-10-07T04:09:18.962Z,10.52
2022-10-07T04:12:23.659Z,10.41
2022-10-07T04:15:27.506Z,10.30
2022-10-07T04:18:29.670Z,10.26
2022-10-07T04:21:35.332Z,10.19
2022-10-07T04:24:38.014Z,10.14
2022-10-07T04:27:51.705Z,10.06
2022-10-07T04:30:55.262Z,10.00
2022-10-07T04:33:58.655Z,10.06
2022-10-07T04:37:01.617Z,10.17
2022-10-07T04:40:05.233Z,10.17
2022-10-07T04:43:30.032Z,10.19
2022-10-07T04:46:35.625Z,10.18
2022-10-07T04:49:38.463Z,10.20
2022-10-07T04:52:42.658Z,10.16
2022-10-07T04:55:47.017Z,10.14
2022-10-07T04:58:49.472Z,10.17
2022-10-07T05:01:52.526Z,10.13
2022-10-07T05:04:55.662Z,10.06
2022-10-07T05:07:59.633Z,9.99
2022-10-07T05:11:03.612Z,9.97
2022-10-07T05:14:05.960Z,9.94
2022-10-07T05:17:08.652Z,9.97
2022-10-07T05:20:12.825Z,10.02
2022-10-07T05:23:17.074Z,10.11
2022-10-07T05:26:20.674Z,10.16
2022-10-07T05:29:24.791Z,10.26
2022-10-07T05:32:29.014Z,10.31
2022-10-07T05:35:36.296Z,10.41
2022-10-07T05:38:39.065Z,10.50
2022-10-07T05:41:46.208Z,10.63
2022-10-07T05:44:49.755Z,10.68
2022-10-07T05:48:00.942Z,10.76
2022-10-07T05:51:03.495Z,10.81
2022-10-07T05:54:06.305Z,10.91
2022-10-07T05:57:15.363Z,11.02
2022-10-07T06:00:18.074Z,11.06
2022-10-07T06:03:28.209Z,11.16
2022-10-07T06:06:35.425Z,11.23
2022-10-07T06:09:57.308Z,11.50
2022-10-07T06:13:20.536Z,11.63
2022-10-07T06:16:23.978Z,11.77
2022-10-07T06:19:29.494Z,12.37
2022-10-07T06:22:31.798Z,13.04
2022-10-07T06:25:45.871Z,12.91
2022-10-07T06:28:50.200Z,12.85
2022-10-07T06:31:55.232Z,12.97
2022-10-07T06:34:57.910Z,13.03
2022-10-07T06:38:00.268Z,13.08
2022-10-07T06:41:06.250Z,13.15
2022-10-07T06:44:09.529Z,13.23
2022-10-07T06:47:12.518Z,13.35
2022-10-07T06:50:15.249Z,13.44
2022-10-07T06:53:19.320Z,13.62
2022-10-07T06:56:27.323Z,13.77
2022-10-07T06:59:29.810Z,13.93
2022-10-07T07:02:39.118Z,14.05
2022-10-07T07:09:06.513Z,14.28
2022-10-07T07:12:12.636Z,14.30
2022-10-07T07:15:14.673Z,14.20
2022-10-07T07:18:18.062Z,14.34
2022-10-07T07:21:28.037Z,14.52
2022-10-07T07:24:30.141Z,14.64
2022-10-07T07:27:32.871Z,14.84
2022-10-07T07:30:35.224Z,15.02
2022-10-07T07:33:40.386Z,15.17
2022-10-07T07:36:46.755Z,15.34
2022-10-07T07:39:49.525Z,15.46
2022-10-07T07:42:51.946Z,15.54
2022-10-07T07:46:01.885Z,15.57
2022-10-07T07:49:08.452Z,15.57
2022-10-07T07:52:10.552Z,15.58
2022-10-07T07:55:22.528Z,15.79
2022-10-07T07:58:24.935Z,15.80
2022-10-07T08:01:27.845Z,15.85
2022-10-07T08:04:30.854Z,16.01
2022-10-07T08:07:34.562Z,16.27
2022-10-07T08:10:37.469Z,16.48
2022-10-07T08:13:42.102Z,16.55
2022-10-07T08:16:49.364Z,16.73
2022-10-07T08:19:55.632Z,16.77
2022-10-07T08:23:05.089Z,16.93
2022-10-07T08:26:10.418Z,16.78
2022-10-07T08:29:15.328Z,16.98
2022-10-07T08:32:17.497Z,16.91
2022-10-07T08:35:20.011Z,17.05
2022-10-07T08:38:22.006Z,17.19
2022-10-07T08:41:25.068Z,17.33
2022-10-07T08:44:32.463Z,17.38
2022-10-07T08:47:38.332Z,17.49
2022-10-07T08:50:58.571Z,17.30
2022-10-07T08:54:01.095Z,17.43
2022-10-07T08:57:29.896Z,17.54
2022-10-07T09:00:41.849Z,17.64
2022-10-07T09:04:07.001Z,17.76
2022-10-07T09:07:13.200Z,17.78
2022-10-07T09:10:24.448Z,17.96
2022-10-07T09:13:33.069Z,17.94
2022-10-07T09:16:38.938Z,17.99
2022-10-07T09:19:53.493Z,18.10
2022-10-07T09:22:57.998Z,18.25
2022-10-07T09:26:01.353Z,18.23
2022-10-07T09:29:07.211Z,18.37
2022-10-07T09:32:17.492Z,18.47
2022-10-07T09:35:22.491Z,18.64
2022-10-07T09:38:32.296Z,18.78
2022-10-07T09:41:36.904Z,18.86
2022-10-07T09:44:40.284Z,18.86
2022-10-07T09:47:43.234Z,18.74
2022-10-07T09:50:46.846Z,19.00
2022-10-07T09:54:18.525Z,19.11
2022-10-07T09:57:24.012Z,19.11
2022-10-07T10:00:28.019Z,19.29
2022-10-07T10:03:39.386Z,19.45
2022-10-07T10:06:47.231Z,19.61
2022-10-07T10:09:55.958Z,19.67
2022-10-07T10:12:59.019Z,19.76
2022-10-07T10:16:02.752Z,19.84
2022-10-07T10:19:06.579Z,19.95
2022-10-07T10:22:22.741Z,20.04
2022-10-07T10:25:49.508Z,20.09
2022-10-07T10:28:51.854Z,20.13
2022-10-07T10:32:08.201Z,20.13
2022-10-07T10:35:22.920Z,20.19
2022-10-07T10:38:40.059Z,20.30
2022-10-07T10:41:56.512Z,20.06
2022-10-07T10:45:08.241Z,20.08
2022-10-07T10:48:13.299Z,20.23
2022-10-07T10:51:35.837Z,20.46
2022-10-07T10:54:47.526Z,20.69
2022-10-07T10:58:03.123Z,20.64
2022-10-07T11:01:21.122Z,20.74
2022-10-07T11:04:26.432Z,20.93
2022-10-07T11:07:34.220Z,20.87
2022-10-07T11:10:47.894Z,20.94
2022-10-07T11:14:10.454Z,20.98
2022-10-07T11:17:17.591Z,21.03
2022-10-07T11:20:26.209Z,20.99
2022-10-07T11:23:51.517Z,21.03
2022-10-07T11:26:58.115Z,21.05
2022-10-07T11:30:08.476Z,21.25
2022-10-07T11:33:24.154Z,21.40
2022-10-07T11:36:33.814Z,21.42
2022-10-07T11:39:40.207Z,21.24
2022-10-07T11:42:50.419Z,21.34
2022-10-07T11:45:54.971Z,21.32
2022-10-07T11:49:02.471Z,21.48
2022-10-07T11:52:23.992Z,21.42
2022-10-07T11:55:29.037Z,21.46
2022-10-07T11:58:32.310Z,21.23
2022-10-07T12:01:35.989Z,21.29
2022-10-07T12:04:38.377Z,21.49
2022-10-07T12:07:43.429Z,21.40
2022-10-07T12:10:46.335Z,21.45
2022-10-07T12:13:51.171Z,21.43
2022-10-07T12:16:55.610Z,21.39
2022-10-07T12:20:16.844Z,21.42
2022-10-07T12:23:19.601Z,21.32
2022-10-07T12:26:31.287Z,21.26
2022-10-07T12:29:48.717Z,21.29
2022-10-07T12:32:51.180Z,21.36
2022-10-07T12:35:56.143Z,21.52
2022-10-07T12:39:01.823Z,21.50
2022-10-07T12:42:07.348Z,21.58
2022-10-07T12:45:11.288Z,21.58
2022-10-07T12:48:23.306Z,21.78
2022-10-07T12:51:28.240Z,21.68
2022-10-07T12:54:35.792Z,21.52
2022-10-07T12:57:39.803Z,21.65
2022-10-07T13:01:02.190Z,21.57
2022-10-07T13:04:19.982Z,21.51
2022-10-07T13:07:28.627Z,21.50
2022-10-07T13:10:40.108Z,21.51
2022-10-07T13:14:01.130Z,21.52
2022-10-07T13:17:06.890Z,21.52
2022-10-07T13:20:15.193Z,21.54
2022-10-07T13:23:23.235Z,21.43
2022-10-07T13:26:31.309Z,21.19
2022-10-07T13:29:33.580Z,21.02
2022-10-07T13:32:38.958Z,21.10
2022-10-07T13:35:41.846Z,21.25
2022-10-07T13:38:46.814Z,21.31
2022-10-07T13:41:50.919Z,21.22
2022-10-07T13:44:55.137Z,21.21
2022-10-07T13:47:58.323Z,21.12
2022-10-07T13:51:01.715Z,21.22
2022-10-07T13:54:06.888Z,21.14
2022-10-07T13:57:13.118Z,21.23
2022-10-07T14:00:17.500Z,21.35
2022-10-07T14:03:20.413Z,21.34
2022-10-07T14:06:49.017Z,21.30
2022-10-07T14:10:02.790Z,21.24
2022-10-07T14:13:10.737Z,21.14
2022-10-07T14:16:22.403Z,21.09
2022-10-07T14:19:32.305Z,21.05
2022-10-07T14:22:37.537Z,20.98
2022-10-07T14:25:52.137Z,20.92
2022-10-07T14:28:54.885Z,20.76
2022-10-07T14:32:40.759Z,20.82
2022-10-07T14:35:46.393Z,20.69
2022-10-07T14:38:49.824Z,20.67
2022-10-07T14:41:52.157Z,20.62
2022-10-07T14:44:56.285Z,20.53
2022-10-07T14:47:58.191Z,20.36
2022-10-07T14:51:00.623Z,20.30
2022-10-07T14:54:07.228Z,20.26
2022-10-07T14:57:09.734Z,20.19
2022-10-07T15:00:21.198Z,20.14
2022-10-07T15:03:24.691Z,20.02
2022-10-07T15:06:29.971Z,19.83
2022-10-07T15:09:34.797Z,19.65
2022-10-07T15:12:38.112Z,19.50
2022-10-07T15:15:45.614Z,19.47
2022-10-07T15:18:52.544Z,19.31
2022-10-07T15:21:59.874Z,19.19
2022-10-07T15:25:07.893Z,19.07
2022-10-07T15:28:11.101Z,18.95
2022-10-07T15:31:13.797Z,18.76
2022-10-07T15:34:18.463Z,18.73
2022-10-07T15:37:21.283Z,18.67
2022-10-07T15:40:24.249Z,18.54
2022-10-07T15:43:28.931Z,18.51
2022-10-07T15:46:32.074Z,18.37
2022-10-07T15:49:38.378Z,18.27
2022-10-07T15:52:40.611Z,18.19
2022-10-07T15:55:56.446Z,18.07
2022-10-07T15:59:00.861Z,18.01
2022-10-07T16:02:03.928Z,17.89
2022-10-07T16:05:07.831Z,17.78
2022-10-07T16:08:10.424Z,17.64
2022-10-07T16:11:13.147Z,17.55
2022-10-07T16:14:15.835Z,17.41
2022-10-07T16:17:20.016Z,17.27
2022-10-07T16:20:22.505Z,17.12
2022-10-07T16:23:25.027Z,16.98
2022-10-07T16:26:33.506Z,16.81
2022-10-07T16:30:11.360Z,16.69
2022-10-07T16:33:14.408Z,16.54
2022-10-07T16:36:17.934Z,16.40
2022-10-07T16:39:29.004Z,16.26
2022-10-07T16:42:33.537Z,16.07
2022-10-07T16:45:43.378Z,15.95
2022-10-07T16:48:46.359Z,15.87
2022-10-07T16:51:48.600Z,15.74
2022-10-07T16:54:51.231Z,15.61
2022-10-07T16:57:54.021Z,15.49
2022-10-07T17:01:06.587Z,15.40
2022-10-07T17:04:10.364Z,15.27
2022-10-07T17:07:12.599Z,15.18
2022-10-07T17:10:15.088Z,15.08
2022-10-07T17:13:20.484Z,15.01
2022-10-07T17:16:23.273Z,14.94
2022-10-07T17:19:28.063Z,14.88
2022-10-07T17:22:30.527Z,14.84
2022-10-07T17:25:33.324Z,14.81
2022-10-07T17:28:37.767Z,14.84
2022-10-07T17:31:46.851Z,14.94
2022-10-07T17:34:49.087Z,14.98
2022-10-07T17:37:51.970Z,15.03
2022-10-07T17:40:54.505Z,15.05
2022-10-07T17:44:02.560Z,15.04
2022-10-07T17:47:05.333Z,15.02
2022-10-07T17:50:10.368Z,14.96
2022-10-07T17:53:13.152Z,14.91
2022-10-07T17:56:16.027Z,14.82
2022-10-07T17:59:18.400Z,14.76
2022-10-07T18:02:21.693Z,14.67
2022-10-07T18:05:24.557Z,14.61
2022-10-07T18:08:31.252Z,14.53
2022-10-07T18:11:53.295Z,14.47
2022-10-07T18:15:14.950Z,14.41
2022-10-07T18:18:17.417Z,14.38
2022-10-07T18:21:24.534Z,14.31
2022-10-07T18:24:29.536Z,14.27
2022-10-07T18:27:31.901Z,14.21
2022-10-07T18:30:34.152Z,14.15
2022-10-07T18:33:37.777Z,14.14
2022-10-07T18:36:41.392Z,14.09
2022-10-07T18:39:47.540Z,14.00
2022-10-07T18:42:50.474Z,13.94
2022-10-07T18:46:06.060Z,13.88
2022-10-07T18:49:11.145Z,13.83
2022-10-07T18:52:13.409Z,13.78
2022-10-07T18:55:17.789Z,13.77
2022-10-07T18:58:20.460Z,13.65
2022-10-07T19:01:24.189Z,13.57
2022-10-07T19:04:27.046Z,13.56
2022-10-07T19:07:31.779Z,13.48
2022-10-07T19:10:37.738Z,13.39
2022-10-07T19:13:50.764Z,13.38
2022-10-07T19:16:54.311Z,13.30
2022-10-07T19:20:00.817Z,13.27
2022-10-07T19:23:04.857Z,13.19
2022-10-07T19:26:09.590Z,13.13
2022-10-07T19:29:13.439Z,13.04
2022-10-07T19:32:16.178Z,13.04
2022-10-07T19:35:19.414Z,13.05
2022-10-07T19:38:22.994Z,13.00
2022-10-07T19:41:27.907Z,12.88
2022-10-07T19:44:32.756Z,12.81
2022-10-07T19:47:36.114Z,12.80
2022-10-07T19:50:38.944Z,12.79
2022-10-07T19:53:46.842Z,12.81
2022-10-07T19:56:51.820Z,12.75
2022-10-07T19:59:56.921Z,12.74
2022-10-07T20:02:59.386Z,12.73
2022-10-07T20:06:11.612Z,12.72
2022-10-07T20:09:19.728Z,12.63
2022-10-07T20:12:23.532Z,12.61
2022-10-07T20:15:25.809Z,12.61
2022-10-07T20:18:28.797Z,12.56
2022-10-07T20:21:32.048Z,12.48
2022-10-07T20:24:33.997Z,12.46
2022-10-07T20:27:35.986Z,12.52
2022-10-07T20:30:38.310Z,12.43
2022-10-07T20:33:51.175Z,12.49
2022-10-07T20:36:57.765Z,12.43
2022-10-07T20:40:22.617Z,12.33
2022-10-07T20:43:24.650Z,12.30
2022-10-07T20:46:27.884Z,12.23
2022-10-07T20:49:35.249Z,12.20
2022-10-07T20:52:37.721Z,12.18
2022-10-07T20:55:40.119Z,12.17
2022-10-07T20:58:43.316Z,12.07
2022-10-07T21:01:45.645Z,11.97
2022-10-07T21:04:48.485Z,11.94
2022-10-07T21:07:54.812Z,11.92
2022-10-07T21:11:04.535Z,11.93
2022-10-07T21:14:07.694Z,11.85
2022-10-07T21:17:12.389Z,11.87
2022-10-07T21:20:14.491Z,11.81
2022-10-07T21:23:17.196Z,11.77
2022-10-07T21:26:20.301Z,11.68
2022-10-07T21:29:22.737Z,11.67
2022-10-07T21:32:25.546Z,11.65
2022-10-07T21:35:32.601Z,11.67
2022-10-07T21:38:35.611Z,11.65
2022-10-07T21:41:40.832Z,11.60
2022-10-07T21:44:46.557Z,11.57
2022-10-07T21:47:50.737Z,11.56
2022-10-07T21:51:09.453Z,11.56
2022-10-07T21:54:15.525Z,11.58
2022-10-07T21:57:20.345Z,11.56
2022-10-07T22:00:23.829Z,11.49
2022-10-07T22:03:26.165Z,11.46
2022-10-07T22:06:48.658Z,11.42
2022-10-07T22:09:50.793Z,11.36
2022-10-07T22:12:55.076Z,11.41
2022-10-07T22:16:01.107Z,11.35
2022-10-07T22:19:03.954Z,11.32
2022-10-07T22:22:07.181Z,11.26
2022-10-07T22:25:10.959Z,11.23
2022-10-07T22:28:20.011Z,11.29
2022-10-07T22:31:22.820Z,11.26
2022-10-07T22:34:44.372Z,11.20
2022-10-07T22:37:48.335Z,11.21
2022-10-07T22:40:50.705Z,11.23
2022-10-07T22:43:55.922Z,11.21
2022-10-07T22:47:02.462Z,11.22
2022-10-07T22:50:08.505Z,11.13
2022-10-07T22:53:11.688Z,11.08
2022-10-07T22:56:15.843Z,11.04
2022-10-07T22:59:28.341Z,11.10
2022-10-07T23:02:31.698Z,11.03
2022-10-07T23:05:37.224Z,10.97
2022-10-07T23:08:39.845Z,10.91
2022-10-07T23:11:42.429Z,10.89
2022-10-07T23:14:44.993Z,10.86
2022-10-07T23:17:51.100Z,10.85
2022-10-07T23:21:00.396Z,10.90
2022-10-07T23:24:07.240Z,10.88
2022-10-07T23:27:10.885Z,10.88
2022-10-07T23:30:18.903Z,10.86
2022-10-07T23:33:21.280Z,10.91
2022-10-07T23:36:26.746Z,10.85
2022-10-07T23:39:29.315Z,10.77
2022-10-07T23:42:33.110Z,10.83
2022-10-07T23:45:35.878Z,10.78
2022-10-07T23:48:38.675Z,10.73
2022-10-07T23:51:40.834Z,10.68
2022-10-07T23:54:44.664Z,10.64
2022-10-07T23:57:47.034Z,10.63
